Time;durP1;ratioP1;P1;durP2;ratioP2;P2;SDS_P1;SDS_P2;PMS_P1;PMS_P2;Temp;Humidity;BMP_temperature;BMP_pressure;BME280_temperature;BME280_humidity;BME280_pressure;Samples;Min_cycle;Max_cycle;Signal;HPM_P1;HPM_P2
2021/03/30 00:01:40;;;;;;;23.73;10.00;;;;;;;;;;5033940;28;20088;-66
2021/03/30 00:04:06;;;;;;;22.10;10.15;;;;;;;;;;5033693;28;20490;-66
2021/03/30 00:06:31;;;;;;;19.02;9.52;;;;;;;;;;5034429;28;20021;-66
2021/03/30 00:08:57;;;;;;;26.25;10.07;;;;;;;;;;5021089;28;20037;-66
2021/03/30 00:11:22;;;;;;;22.25;10.35;;;;;;;;;;5014366;28;20017;-66
2021/03/30 00:13:48;;;;;;;23.85;10.43;;;;;;;;;;5014256;28;20394;-66
2021/03/30 00:16:13;;;;;;;20.98;9.70;;;;;;;;;;5014351;28;20025;-66
2021/03/30 00:18:38;;;;;;;19.10;10.27;;;;;;;;;;5032050;28;20028;-66
2021/03/30 00:21:04;;;;;;;27.95;11.25;;;;;;;;;;5032116;28;20010;-66
2021/03/30 00:23:29;;;;;;;19.15;9.40;;;;;;;;;;5014414;28;20484;-66
2021/03/30 00:25:54;;;;;;;20.52;10.60;;;;;;;;;;5031881;28;20079;-66
2021/03/30 00:28:20;;;;;;;22.23;9.48;;;;;;;;;;5031665;28;20021;-65
2021/03/30 00:30:46;;;;;;;22.60;9.88;;;;;;;;;;5034854;28;20017;-66
2021/03/30 00:33:11;;;;;;;27.00;10.50;;;;;;;;;;5035567;28;20014;-66
2021/03/30 00:35:38;;;;;;;18.95;9.98;;;;;;;;;;5034954;28;20025;-66
2021/03/30 00:38:04;;;;;;;28.33;10.32;;;;;;;;;;5018080;28;20072;-65
2021/03/30 00:40:29;;;;;;;24.02;10.40;;;;;;;;;;5017700;28;20025;-66
2021/03/30 00:42:55;;;;;;;21.00;10.38;;;;;;;;;;5017973;28;20086;-66
2021/03/30 00:45:20;;;;;;;23.70;11.02;;;;;;;;;;5017587;28;20018;-66
2021/03/30 00:47:46;;;;;;;25.17;10.98;;;;;;;;;;5017643;28;20017;-66
2021/03/30 00:50:15;;;;;;;27.63;11.85;;;;;;;;;;5017963;28;20016;-66
2021/03/30 00:52:41;;;;;;;29.40;11.60;;;;;;;;;;5034846;28;20052;-66
2021/03/30 00:55:07;;;;;;;23.70;10.10;;;;;;;;;;5017712;28;20482;-66
2021/03/30 00:57:34;;;;;;;22.15;9.95;;;;;;;;;;5035402;28;20019;-66
2021/03/30 00:59:59;;;;;;;21.48;9.80;;;;;;;;;;5016935;28;20068;-66
2021/03/30 01:02:25;;;;;;;22.20;10.70;;;;;;;;;;5035248;28;20053;-66
2021/03/30 01:04:50;;;;;;;25.92;10.88;;;;;;;;;;5034633;28;20489;-66
2021/03/30 01:07:16;;;;;;;22.15;10.32;;;;;;;;;;5034783;28;20433;-66
2021/03/30 01:09:51;;;;;;;18.42;9.95;;;;;;;;;;5054346;28;20027;-66
2021/03/30 01:12:26;;;;;;;25.00;9.45;;;;;;;;;;5036944;28;20417;-66
2021/03/30 01:14:56;;;;;;;25.63;9.93;;;;;;;;;;5054066;28;20484;-66
2021/03/30 01:17:22;;;;;;;22.48;8.95;;;;;;;;;;5037112;28;20496;-66
2021/03/30 01:19:57;;;;;;;18.58;9.32;;;;;;;;;;5055040;28;20022;-66
2021/03/30 01:22:32;;;;;;;18.90;8.38;;;;;;;;;;5054379;28;20067;-66
2021/03/30 01:24:59;;;;;;;24.88;8.00;;;;;;;;;;5054729;28;20474;-66
2021/03/30 01:27:24;;;;;;;14.65;8.35;;;;;;;;;;5054643;28;20029;-66
2021/03/30 01:29:52;;;;;;;21.95;9.50;;;;;;;;;;5054036;28;20040;-66
2021/03/30 01:32:21;;;;;;;20.77;8.60;;;;;;;;;;5054620;28;20074;-66
2021/03/30 01:34:48;;;;;;;22.63;8.90;;;;;;;;;;5035687;28;20025;-67
2021/03/30 01:37:15;;;;;;;21.13;8.90;;;;;;;;;;5054379;28;20033;-66
2021/03/30 01:39:42;;;;;;;20.92;8.48;;;;;;;;;;5036389;28;20092;-66
2021/03/30 01:42:08;;;;;;;21.85;8.30;;;;;;;;;;5053626;28;20044;-66
2021/03/30 01:44:35;;;;;;;20.65;9.68;;;;;;;;;;5053598;28;20497;-66
2021/03/30 01:47:01;;;;;;;20.88;8.10;;;;;;;;;;5036743;28;20029;-66
2021/03/30 01:49:26;;;;;;;16.63;8.68;;;;;;;;;;5054333;28;20373;-66
2021/03/30 01:51:52;;;;;;;27.20;9.65;;;;;;;;;;5036016;28;20025;-66
2021/03/30 01:54:18;;;;;;;20.20;9.75;;;;;;;;;;5036288;28;20040;-65
2021/03/30 01:56:45;;;;;;;22.80;9.10;;;;;;;;;;5036321;28;20028;-66
2021/03/30 01:59:13;;;;;;;18.90;9.07;;;;;;;;;;5035770;28;20013;-66
2021/03/30 02:01:39;;;;;;;18.23;8.90;;;;;;;;;;5035915;28;20029;-65
2021/03/30 02:04:05;;;;;;;21.98;8.80;;;;;;;;;;5053391;28;20060;-65
2021/03/30 02:06:32;;;;;;;21.30;9.82;;;;;;;;;;5035905;28;20063;-65
2021/03/30 02:08:59;;;;;;;21.77;10.00;;;;;;;;;;5040621;28;20386;-65
2021/03/30 02:11:30;;;;;;;21.52;10.15;;;;;;;;;;5033809;28;20090;-65
2021/03/30 02:13:57;;;;;;;19.73;9.18;;;;;;;;;;5033388;28;20120;-65
2021/03/30 02:16:25;;;;;;;13.48;8.18;;;;;;;;;;5033953;28;20037;-65
2021/03/30 02:18:58;;;;;;;19.05;9.02;;;;;;;;;;5033883;28;20017;-65
2021/03/30 02:21:28;;;;;;;17.60;8.90;;;;;;;;;;5033312;28;20104;-66
2021/03/30 02:23:55;;;;;;;17.02;9.23;;;;;;;;;;5033849;28;20021;-66
2021/03/30 02:26:20;;;;;;;19.60;9.10;;;;;;;;;;5033671;28;20025;-66
2021/03/30 02:28:51;;;;;;;23.63;10.43;;;;;;;;;;5032732;28;20387;-66
2021/03/30 02:31:20;;;;;;;22.48;9.73;;;;;;;;;;5033446;28;20028;-66
2021/03/30 02:33:45;;;;;;;;;;;;;;;;;;5032931;28;20099;-66
2021/03/30 02:36:11;;;;;;;29.95;12.00;;;;;;;;;;5033024;28;20353;-66
2021/03/30 02:38:37;;;;;;;30.23;13.45;;;;;;;;;;5033212;28;20393;-65
2021/03/30 02:41:03;;;;;;;25.15;12.90;;;;;;;;;;5015677;28;20021;-66
2021/03/30 02:43:29;;;;;;;27.60;12.75;;;;;;;;;;4999133;28;20021;-66
2021/03/30 02:45:54;;;;;;;29.20;11.88;;;;;;;;;;5015592;28;20031;-66
2021/03/30 02:48:20;;;;;;;30.58;12.68;;;;;;;;;;5033196;28;20029;-65
2021/03/30 02:50:46;;;;;;;32.65;13.07;;;;;;;;;;5032430;28;20024;-65
2021/03/30 02:53:13;;;;;;;22.08;11.43;;;;;;;;;;4998913;28;20021;-65
2021/03/30 02:55:41;;;;;;;33.08;13.40;;;;;;;;;;5015406;28;20498;-66
2021/03/30 02:58:06;;;;;;;27.60;13.35;;;;;;;;;;5032880;28;20116;-66
2021/03/30 03:00:32;;;;;;;26.27;12.85;;;;;;;;;;5032538;28;20105;-66
2021/03/30 03:02:59;;;;;;;31.20;14.10;;;;;;;;;;5015300;28;20116;-66
2021/03/30 03:05:24;;;;;;;24.02;12.80;;;;;;;;;;5031744;28;20067;-66
2021/03/30 03:07:50;;;;;;;27.15;13.55;;;;;;;;;;5018983;28;20013;-66
2021/03/30 03:10:16;;;;;;;33.35;15.32;;;;;;;;;;5035170;28;20025;-66
2021/03/30 03:12:42;;;;;;;30.10;14.95;;;;;;;;;;5034284;28;20571;-66
2021/03/30 03:15:08;;;;;;;32.08;14.50;;;;;;;;;;5052808;28;20056;-66
2021/03/30 03:17:34;;;;;;;29.67;14.57;;;;;;;;;;5052632;28;20017;-66
2021/03/30 03:20:01;;;;;;;34.28;14.82;;;;;;;;;;5034522;28;20017;-66
2021/03/30 03:22:28;;;;;;;29.05;14.20;;;;;;;;;;5052502;28;20029;-67
2021/03/30 03:24:54;;;;;;;31.73;14.80;;;;;;;;;;5034471;28;20112;-66
2021/03/30 03:27:19;;;;;;;34.78;16.13;;;;;;;;;;5034245;28;20784;-66
2021/03/30 03:29:44;;;;;;;32.13;16.45;;;;;;;;;;5052216;28;20053;-66
2021/03/30 03:32:10;;;;;;;30.45;15.07;;;;;;;;;;5052527;28;20024;-66
2021/03/30 03:34:36;;;;;;;36.95;16.30;;;;;;;;;;5033325;28;20021;-66
2021/03/30 03:37:02;;;;;;;33.15;14.80;;;;;;;;;;5034634;28;20021;-66
2021/03/30 03:39:28;;;;;;;29.55;16.17;;;;;;;;;;5052279;28;20024;-66
2021/03/30 03:41:53;;;;;;;37.38;17.00;;;;;;;;;;5017608;28;20040;-66
2021/03/30 03:44:19;;;;;;;35.55;16.80;;;;;;;;;;5052284;28;20029;-66
2021/03/30 03:46:44;;;;;;;39.67;16.85;;;;;;;;;;5051983;28;21231;-66
2021/03/30 03:49:10;;;;;;;29.48;16.27;;;;;;;;;;5033862;28;20103;-66
2021/03/30 03:51:37;;;;;;;37.53;15.40;;;;;;;;;;5034377;28;20028;-66
2021/03/30 03:54:04;;;;;;;35.72;17.10;;;;;;;;;;5034191;28;20041;-66
2021/03/30 03:56:32;;;;;;;35.05;16.40;;;;;;;;;;5051574;28;20223;-65
2021/03/30 03:59:01;;;;;;;30.88;17.05;;;;;;;;;;5052468;28;20436;-66
2021/03/30 04:01:35;;;;;;;37.42;17.30;;;;;;;;;;5034389;28;20035;-66
2021/03/30 04:04:02;;;;;;;30.73;16.85;;;;;;;;;;5051898;28;20473;-66
2021/03/30 04:06:33;;;;;;;37.72;18.55;;;;;;;;;;5038265;28;20023;-65
2021/03/30 04:08:59;;;;;;;38.55;17.80;;;;;;;;;;5056306;28;20083;-66
2021/03/30 04:11:26;;;;;;;36.63;17.48;;;;;;;;;;5055618;28;20507;-65
2021/03/30 04:13:51;;;;;;;32.17;16.70;;;;;;;;;;5038195;28;20492;-66
2021/03/30 04:16:17;;;;;;;30.27;17.52;;;;;;;;;;5056003;28;20048;-66
2021/03/30 04:18:43;;;;;;;36.65;17.48;;;;;;;;;;5037885;28;20481;-66
2021/03/30 04:21:18;;;;;;;37.05;17.40;;;;;;;;;;5038051;28;20457;-66
2021/03/30 04:23:45;;;;;;;29.58;16.58;;;;;;;;;;5055959;28;20383;-66
2021/03/30 04:26:11;;;;;;;38.28;16.40;;;;;;;;;;5055816;28;20036;-66
2021/03/30 04:28:36;;;;;;;36.15;16.30;;;;;;;;;;5055394;28;20045;-66
2021/03/30 04:31:02;;;;;;;35.17;16.52;;;;;;;;;;5038106;28;20028;-66
2021/03/30 04:33:27;;;;;;;33.03;17.23;;;;;;;;;;5037062;28;20528;-67
2021/03/30 04:35:52;;;;;;;35.63;17.67;;;;;;;;;;5037698;28;20393;-66
2021/03/30 04:38:18;;;;;;;46.72;22.10;;;;;;;;;;5037920;28;20051;-66
2021/03/30 04:40:49;;;;;;;35.65;19.00;;;;;;;;;;5055268;28;20482;-66
2021/03/30 04:43:15;;;;;;;35.55;18.23;;;;;;;;;;5037619;28;20395;-66
2021/03/30 04:45:40;;;;;;;34.15;18.65;;;;;;;;;;5055440;28;20040;-67
2021/03/30 04:48:06;;;;;;;32.17;17.10;;;;;;;;;;5037158;28;20385;-67
2021/03/30 04:50:31;;;;;;;35.33;18.60;;;;;;;;;;5020909;28;20027;-67
2021/03/30 04:52:57;;;;;;;35.60;18.52;;;;;;;;;;5037343;28;20032;-67
2021/03/30 04:55:22;;;;;;;38.10;17.73;;;;;;;;;;5055113;28;20103;-66
2021/03/30 04:57:47;;;;;;;33.42;17.10;;;;;;;;;;5037091;28;20358;-66
2021/03/30 05:00:15;;;;;;;37.08;18.92;;;;;;;;;;5020791;28;20048;-66
2021/03/30 05:02:40;;;;;;;38.70;18.35;;;;;;;;;;5054932;28;20009;-66
2021/03/30 05:05:06;;;;;;;34.70;18.75;;;;;;;;;;5037048;28;20105;-67
2021/03/30 05:07:32;;;;;;;53.50;22.85;;;;;;;;;;5053577;28;20142;-67
2021/03/30 05:09:57;;;;;;;45.72;22.25;;;;;;;;;;5035231;28;20048;-67
2021/03/30 05:12:24;;;;;;;40.20;20.13;;;;;;;;;;5034708;28;20014;-66
2021/03/30 05:14:50;;;;;;;41.22;21.17;;;;;;;;;;5016367;28;20482;-66
2021/03/30 05:17:15;;;;;;;43.60;21.40;;;;;;;;;;5016158;28;20029;-66
2021/03/30 05:19:41;;;;;;;45.72;21.85;;;;;;;;;;5017198;28;20029;-66
2021/03/30 05:22:06;;;;;;;47.28;22.42;;;;;;;;;;5017480;28;20514;-66
2021/03/30 05:24:32;;;;;;;50.80;21.95;;;;;;;;;;5017253;28;20025;-66
2021/03/30 05:26:57;;;;;;;40.97;20.80;;;;;;;;;;5034633;28;20018;-66
2021/03/30 05:29:22;;;;;;;39.55;19.85;;;;;;;;;;5016588;28;20037;-67
2021/03/30 05:31:48;;;;;;;41.90;20.48;;;;;;;;;;5034578;28;20132;-67
2021/03/30 05:34:13;;;;;;;42.78;20.08;;;;;;;;;;5033746;28;20042;-67
2021/03/30 05:36:39;;;;;;;31.55;17.48;;;;;;;;;;5037635;28;21318;-67
2021/03/30 05:39:04;;;;;;;47.50;20.88;;;;;;;;;;5056666;28;20016;-68
2021/03/30 05:41:30;;;;;;;38.90;17.63;;;;;;;;;;5054168;28;20405;-67
2021/03/30 05:43:55;;;;;;;37.53;17.70;;;;;;;;;;5070543;28;20018;-71
2021/03/30 05:46:21;;;;;;;30.92;16.33;;;;;;;;;;5019606;28;20070;-72
2021/03/30 05:48:47;;;;;;;37.08;18.02;;;;;;;;;;5036026;28;20493;-72
2021/03/30 05:51:17;;;;;;;36.67;17.90;;;;;;;;;;5054084;28;20063;-68
2021/03/30 05:53:42;;;;;;;;;;;;;;;;;;5036908;28;20025;-69
2021/03/30 05:56:08;;;;;;;46.90;22.93;;;;;;;;;;5053684;28;20414;-68
2021/03/30 05:58:33;;;;;;;62.35;25.27;;;;;;;;;;5053495;28;20262;-72
2021/03/30 06:01:09;;;;;;;51.00;24.75;;;;;;;;;;5049767;28;20021;-68
2021/03/30 06:03:35;;;;;;;43.88;21.70;;;;;;;;;;5051892;28;20032;-72
2021/03/30 06:06:01;;;;;;;48.58;21.88;;;;;;;;;;5033491;28;20013;-68
2021/03/30 06:08:28;;;;;;;50.38;22.98;;;;;;;;;;5052960;28;20485;-68
2021/03/30 06:10:55;;;;;;;42.22;23.42;;;;;;;;;;5052891;28;20049;-68
2021/03/30 06:13:30;;;;;;;62.00;29.95;;;;;;;;;;5052603;28;20509;-67
2021/03/30 06:15:55;;;;;;;94.45;40.83;;;;;;;;;;5051296;28;20021;-69
2021/03/30 06:18:23;;;;;;;79.93;36.20;;;;;;;;;;5034056;28;20098;-68
2021/03/30 06:20:49;;;;;;;64.00;30.92;;;;;;;;;;5051788;28;20062;-69
2021/03/30 06:23:25;;;;;;;70.75;36.40;;;;;;;;;;5033770;28;20025;-67
2021/03/30 06:25:51;;;;;;;73.35;35.42;;;;;;;;;;5031995;28;20037;-70
2021/03/30 06:28:19;;;;;;;67.38;32.53;;;;;;;;;;5047045;28;20056;-67
2021/03/30 06:30:54;;;;;;;49.53;26.37;;;;;;;;;;5051293;28;20024;-68
2021/03/30 06:33:20;;;;;;;54.65;28.73;;;;;;;;;;5051629;28;20254;-68
2021/03/30 06:35:45;;;;;;;59.25;29.05;;;;;;;;;;5033318;28;20024;-69
2021/03/30 06:38:10;;;;;;;53.72;27.48;;;;;;;;;;5051069;28;20024;-66
2021/03/30 06:40:38;;;;;;;52.38;28.00;;;;;;;;;;5050522;28;20021;-64
2021/03/30 06:44:24;;;;;;;45.70;23.58;;;;;;;;;;5052558;28;20048;-64
2021/03/30 06:45:58;;;;;;;44.38;24.23;;;;;;;;;;5035973;28;20017;-66
2021/03/30 06:48:23;;;;;;;48.28;24.80;;;;;;;;;;5033415;28;20025;-65
2021/03/30 06:50:49;;;;;;;51.33;25.17;;;;;;;;;;5051879;28;20020;-65
2021/03/30 06:53:17;;;;;;;43.08;23.48;;;;;;;;;;5049438;28;20025;-65
2021/03/30 06:55:46;;;;;;;48.20;25.20;;;;;;;;;;5026726;28;20044;-64
2021/03/30 06:58:11;;;;;;;47.28;23.63;;;;;;;;;;5033790;28;20017;-64
2021/03/30 07:00:37;;;;;;;45.95;22.08;;;;;;;;;;5052090;28;20039;-64
2021/03/30 07:03:04;;;;;;;38.45;20.13;;;;;;;;;;5051518;28;20020;-65
2021/03/30 07:05:29;;;;;;;39.90;18.35;;;;;;;;;;5018788;28;20128;-64
2021/03/30 07:07:57;;;;;;;42.58;17.33;;;;;;;;;;5019798;28;20069;-65
2021/03/30 07:10:23;;;;;;;30.08;17.20;;;;;;;;;;5052014;28;20028;-64
2021/03/30 07:12:50;;;;;;;30.48;16.77;;;;;;;;;;5031943;28;20024;-64
2021/03/30 07:15:16;;;;;;;28.65;14.38;;;;;;;;;;5047210;28;20041;-65
2021/03/30 07:17:43;;;;;;;21.98;11.15;;;;;;;;;;5033362;28;20028;-66
2021/03/30 07:20:09;;;;;;;19.52;10.57;;;;;;;;;;5031782;28;20474;-62
2021/03/30 07:22:36;;;;;;;19.80;9.98;;;;;;;;;;5015849;28;20465;-63
2021/03/30 07:25:02;;;;;;;20.05;10.85;;;;;;;;;;5051249;28;20021;-62
2021/03/30 07:27:30;;;;;;;23.83;11.18;;;;;;;;;;5032446;28;20505;-62
2021/03/30 07:29:56;;;;;;;20.90;10.65;;;;;;;;;;5047495;28;20107;-62
2021/03/30 07:32:31;;;;;;;20.23;10.30;;;;;;;;;;5028949;28;20029;-63
2021/03/30 07:34:57;;;;;;;20.77;10.55;;;;;;;;;;5028641;28;20036;-64
2021/03/30 07:37:32;;;;;;;22.98;10.30;;;;;;;;;;5030337;28;20021;-64
2021/03/30 07:39:58;;;;;;;16.52;8.68;;;;;;;;;;5049760;28;20017;-64
2021/03/30 07:42:24;;;;;;;15.23;8.10;;;;;;;;;;5055989;28;20029;-64
2021/03/30 07:44:49;;;;;;;17.75;8.68;;;;;;;;;;5061077;28;20075;-65
2021/03/30 07:47:17;;;;;;;13.55;7.50;;;;;;;;;;5045759;28;20444;-66
2021/03/30 07:49:44;;;;;;;14.68;7.47;;;;;;;;;;5034772;28;20019;-65
2021/03/30 07:52:20;;;;;;;14.13;8.43;;;;;;;;;;5043569;28;20380;-66
2021/03/30 07:54:55;;;;;;;16.35;8.45;;;;;;;;;;5048420;28;20028;-66
2021/03/30 07:57:20;;;;;;;19.42;6.70;;;;;;;;;;5052174;28;20033;-65
2021/03/30 07:59:47;;;;;;;12.68;6.30;;;;;;;;;;5055034;28;20015;-65
2021/03/30 08:02:15;;;;;;;15.25;6.30;;;;;;;;;;5053232;28;20025;-68
2021/03/30 08:04:58;;;;;;;11.57;4.93;;;;;;;;;;5017626;28;20021;-68
2021/03/30 08:07:34;;;;;;;9.57;4.63;;;;;;;;;;5036357;28;20020;-68
2021/03/30 08:10:09;;;;;;;12.48;5.90;;;;;;;;;;5046338;28;20048;-66
2021/03/30 08:12:34;;;;;;;12.15;5.55;;;;;;;;;;5043396;28;20408;-68
2021/03/30 08:14:59;;;;;;;13.25;6.28;;;;;;;;;;5035320;28;20119;-68
2021/03/30 08:17:26;;;;;;;12.57;5.50;;;;;;;;;;5051857;28;20071;-68
2021/03/30 08:19:55;;;;;;;12.88;5.80;;;;;;;;;;5053135;28;20120;-67
2021/03/30 08:22:21;;;;;;;12.90;5.15;;;;;;;;;;5035556;28;20021;-66
2021/03/30 08:24:46;;;;;;;12.70;4.95;;;;;;;;;;5060883;28;20028;-67
2021/03/30 08:27:22;;;;;;;11.45;5.57;;;;;;;;;;5034561;28;20027;-68
2021/03/30 08:29:47;;;;;;;10.13;4.82;;;;;;;;;;5021662;28;20476;-69
2021/03/30 08:32:13;;;;;;;11.15;4.93;;;;;;;;;;5029003;28;20032;-72
2021/03/30 08:34:40;;;;;;;10.68;5.50;;;;;;;;;;5061616;28;20021;-71
2021/03/30 08:37:10;;;;;;;11.50;5.63;;;;;;;;;;5055726;28;20102;-69
2021/03/30 08:39:36;;;;;;;11.25;5.38;;;;;;;;;;5034396;28;20043;-68
2021/03/30 08:42:05;;;;;;;12.27;6.05;;;;;;;;;;5049422;28;20032;-68
2021/03/30 08:44:32;;;;;;;14.55;5.95;;;;;;;;;;5047607;28;20381;-68
2021/03/30 08:46:58;;;;;;;13.23;6.05;;;;;;;;;;5048043;28;20028;-67
2021/03/30 08:49:24;;;;;;;8.48;5.07;;;;;;;;;;5046607;28;20025;-67
2021/03/30 08:51:51;;;;;;;13.60;5.82;;;;;;;;;;5052408;28;20032;-70
2021/03/30 08:54:17;;;;;;;12.18;5.50;;;;;;;;;;5035861;28;20064;-73
2021/03/30 08:56:43;;;;;;;12.20;5.38;;;;;;;;;;5031771;28;20060;-68
2021/03/30 08:59:10;;;;;;;17.13;5.47;;;;;;;;;;5041671;28;20036;-67
2021/03/30 09:01:35;;;;;;;8.52;5.30;;;;;;;;;;5018806;28;20031;-68
2021/03/30 09:04:00;;;;;;;11.63;6.07;;;;;;;;;;5039745;28;20013;-66
2021/03/30 09:06:28;;;;;;;11.38;5.63;;;;;;;;;;5033641;28;20032;-67
2021/03/30 09:08:53;;;;;;;10.18;5.95;;;;;;;;;;5060438;28;20127;-69
2021/03/30 09:11:20;;;;;;;9.23;4.88;;;;;;;;;;5056406;28;20108;-66
2021/03/30 09:13:55;;;;;;;10.40;4.70;;;;;;;;;;5050280;28;20021;-68
2021/03/30 09:16:20;;;;;;;9.30;5.10;;;;;;;;;;5052585;28;20557;-69
2021/03/30 09:18:45;;;;;;;16.10;5.28;;;;;;;;;;5035543;28;20096;-67
2021/03/30 09:21:15;;;;;;;19.13;6.20;;;;;;;;;;5035679;28;20025;-67
2021/03/30 09:23:42;;;;;;;11.07;4.65;;;;;;;;;;5034055;28;20013;-69
2021/03/30 09:26:09;;;;;;;301.13;20.27;;;;;;;;;;5042514;28;20046;-67
2021/03/30 09:28:35;;;;;;;9.15;4.35;;;;;;;;;;5053773;28;20033;-68
2021/03/30 09:31:00;;;;;;;13.02;4.80;;;;;;;;;;5051833;28;20024;-69
2021/03/30 09:33:25;;;;;;;11.38;4.38;;;;;;;;;;5051586;28;20070;-70
2021/03/30 09:35:51;;;;;;;10.45;4.35;;;;;;;;;;5035176;28;20024;-67
2021/03/30 09:38:16;;;;;;;12.15;4.50;;;;;;;;;;5058192;28;20017;-69
2021/03/30 09:40:42;;;;;;;10.60;4.07;;;;;;;;;;5053308;28;20059;-69
2021/03/30 09:43:09;;;;;;;8.57;4.50;;;;;;;;;;5052854;28;20489;-69
2021/03/30 09:45:36;;;;;;;11.68;4.53;;;;;;;;;;5035778;28;20044;-70
2021/03/30 09:48:02;;;;;;;8.18;3.80;;;;;;;;;;5052765;28;20477;-69
2021/03/30 09:50:28;;;;;;;9.88;4.32;;;;;;;;;;5018607;28;20032;-70
2021/03/30 09:53:00;;;;;;;9.73;4.43;;;;;;;;;;5018312;28;20111;-70
2021/03/30 09:55:29;;;;;;;9.32;4.57;;;;;;;;;;5033997;28;20511;-69
2021/03/30 09:57:59;;;;;;;10.13;5.18;;;;;;;;;;5052589;28;20017;-69
2021/03/30 10:00:24;;;;;;;;;;;;;;;;;;5036705;28;20029;-67
2021/03/30 10:02:49;;;;;;;11.97;4.57;;;;;;;;;;5054455;28;19920;-68
2021/03/30 10:05:14;;;;;;;15.02;5.40;;;;;;;;;;5032453;28;20355;-68
2021/03/30 10:07:40;;;;;;;13.98;4.90;;;;;;;;;;5010317;28;20109;-69
2021/03/30 10:10:08;;;;;;;10.95;5.43;;;;;;;;;;5033202;28;20013;-67
2021/03/30 10:12:38;;;;;;;10.98;4.88;;;;;;;;;;5051296;28;20021;-68
2021/03/30 10:15:04;;;;;;;16.90;5.78;;;;;;;;;;5033890;28;20040;-67
2021/03/30 10:17:31;;;;;;;10.48;5.15;;;;;;;;;;5034319;28;20021;-67
2021/03/30 10:19:57;;;;;;;70.28;9.43;;;;;;;;;;5033479;28;20020;-67
2021/03/30 10:22:25;;;;;;;9.75;4.88;;;;;;;;;;5050663;28;20111;-68
2021/03/30 10:25:00;;;;;;;10.15;5.32;;;;;;;;;;5017355;28;20013;-67
2021/03/30 10:27:25;;;;;;;8.98;5.20;;;;;;;;;;5034453;28;20025;-67
2021/03/30 10:29:56;;;;;;;10.70;5.30;;;;;;;;;;5014058;28;20079;-66
2021/03/30 10:32:21;;;;;;;11.95;5.18;;;;;;;;;;5047532;28;20077;-66
2021/03/30 10:34:48;;;;;;;12.40;6.03;;;;;;;;;;5050639;28;20029;-65
2021/03/30 10:37:14;;;;;;;9.95;4.90;;;;;;;;;;5053058;28;20017;-67
2021/03/30 10:39:42;;;;;;;13.13;5.13;;;;;;;;;;5052201;28;20025;-67
2021/03/30 10:42:09;;;;;;;11.02;5.18;;;;;;;;;;5033585;28;20373;-67
2021/03/30 10:44:38;;;;;;;12.80;4.82;;;;;;;;;;5050721;28;20032;-67
2021/03/30 10:47:13;;;;;;;15.40;4.93;;;;;;;;;;5024217;28;20029;-67
2021/03/30 10:49:38;;;;;;;8.20;4.28;;;;;;;;;;5032558;28;20016;-67
2021/03/30 10:52:04;;;;;;;11.48;5.03;;;;;;;;;;5051943;28;20428;-66
2021/03/30 10:54:30;;;;;;;11.75;4.80;;;;;;;;;;5048241;28;20036;-66
2021/03/30 10:56:55;;;;;;;42.65;7.68;;;;;;;;;;5043200;28;20025;-64
2021/03/30 10:59:20;;;;;;;9.25;4.63;;;;;;;;;;5033779;28;20459;-66
2021/03/30 11:01:46;;;;;;;11.35;4.63;;;;;;;;;;5051181;28;20528;-65
2021/03/30 11:04:11;;;;;;;7.28;4.28;;;;;;;;;;5022357;28;20047;-65
2021/03/30 11:06:36;;;;;;;9.35;4.97;;;;;;;;;;5051432;28;20024;-66
2021/03/30 11:09:02;;;;;;;8.73;4.75;;;;;;;;;;5034480;28;20036;-66
2021/03/30 11:11:28;;;;;;;10.02;4.65;;;;;;;;;;5014090;28;20026;-69
2021/03/30 11:13:53;;;;;;;12.82;5.10;;;;;;;;;;5048055;28;20032;-66
2021/03/30 11:16:19;;;;;;;11.77;4.97;;;;;;;;;;5031958;28;20040;-65
2021/03/30 11:18:44;;;;;;;9.93;4.68;;;;;;;;;;5032934;28;20013;-67
2021/03/30 11:21:10;;;;;;;11.32;4.47;;;;;;;;;;5034750;28;20132;-66
2021/03/30 11:23:37;;;;;;;11.23;4.95;;;;;;;;;;5034204;28;20013;-65
2021/03/30 11:26:02;;;;;;;12.70;4.30;;;;;;;;;;5056090;28;20033;-66
2021/03/30 11:28:34;;;;;;;12.23;4.07;;;;;;;;;;5067124;28;20428;-63
2021/03/30 11:31:03;;;;;;;10.07;4.45;;;;;;;;;;5036439;28;20029;-63
2021/03/30 11:33:33;;;;;;;9.32;3.83;;;;;;;;;;5049175;28;20488;-62
2021/03/30 11:36:04;;;;;;;8.98;4.30;;;;;;;;;;5047684;28;20585;-62
2021/03/30 11:38:29;;;;;;;10.00;4.00;;;;;;;;;;5048023;28;20481;-61
2021/03/30 11:40:55;;;;;;;11.27;3.95;;;;;;;;;;5032888;28;20029;-62
2021/03/30 11:43:20;;;;;;;8.35;4.20;;;;;;;;;;5032744;28;20129;-62
2021/03/30 11:45:46;;;;;;;10.90;4.13;;;;;;;;;;5049502;28;20017;-61
2021/03/30 11:48:15;;;;;;;8.43;3.75;;;;;;;;;;5011819;28;20548;-63
2021/03/30 11:50:42;;;;;;;8.13;3.63;;;;;;;;;;5047928;28;20025;-62
2021/03/30 11:53:07;;;;;;;11.65;3.78;;;;;;;;;;5028809;28;20048;-62
2021/03/30 11:55:33;;;;;;;8.60;3.47;;;;;;;;;;5031776;28;20032;-64
2021/03/30 11:57:58;;;;;;;7.47;3.38;;;;;;;;;;5032743;28;20025;-62
2021/03/30 12:00:25;;;;;;;17.48;3.78;;;;;;;;;;5050389;28;20013;-66
2021/03/30 12:02:50;;;;;;;7.55;3.50;;;;;;;;;;5050083;28;20016;-63
2021/03/30 12:05:18;;;;;;;11.52;4.00;;;;;;;;;;5043463;28;20020;-64
2021/03/30 12:07:43;;;;;;;8.13;3.90;;;;;;;;;;5043311;28;20012;-64
2021/03/30 12:10:09;;;;;;;6.97;3.00;;;;;;;;;;5067111;28;20104;-63
2021/03/30 12:12:34;;;;;;;7.72;3.38;;;;;;;;;;5061814;28;20457;-62
2021/03/30 12:15:00;;;;;;;8.57;3.70;;;;;;;;;;5058750;28;20028;-64
2021/03/30 12:17:25;;;;;;;15.40;3.85;;;;;;;;;;5046790;28;20028;-64
2021/03/30 12:19:51;;;;;;;7.53;4.00;;;;;;;;;;5039789;28;20025;-72
2021/03/30 12:22:17;;;;;;;6.78;3.08;;;;;;;;;;5035342;28;20032;-69
2021/03/30 12:24:42;;;;;;;10.45;3.67;;;;;;;;;;5032946;28;20114;-69
2021/03/30 12:27:11;;;;;;;7.32;3.35;;;;;;;;;;5057130;28;20059;-69
2021/03/30 12:29:37;;;;;;;9.15;3.80;;;;;;;;;;5039955;28;20052;-67
2021/03/30 12:32:03;;;;;;;10.23;6.10;;;;;;;;;;5042533;28;20041;-69
2021/03/30 12:34:28;;;;;;;8.82;4.20;;;;;;;;;;5042338;28;20377;-68
2021/03/30 12:36:53;;;;;;;7.40;3.45;;;;;;;;;;5019101;28;20064;-69
2021/03/30 12:39:19;;;;;;;7.78;4.03;;;;;;;;;;5043724;28;20029;-69
2021/03/30 12:41:45;;;;;;;10.15;3.35;;;;;;;;;;5018685;28;20485;-71
2021/03/30 12:44:10;;;;;;;5.40;3.10;;;;;;;;;;5058028;28;20017;-68
2021/03/30 12:46:36;;;;;;;5.28;2.95;;;;;;;;;;5037799;28;20067;-68
2021/03/30 12:49:01;;;;;;;4.90;2.58;;;;;;;;;;5025121;28;20417;-67
2021/03/30 12:51:27;;;;;;;6.88;2.97;;;;;;;;;;5035018;28;20024;-68
2021/03/30 12:53:58;;;;;;;8.32;3.45;;;;;;;;;;5056564;28;20115;-68
2021/03/30 12:56:25;;;;;;;4.05;2.70;;;;;;;;;;5053368;28;20470;-66
2021/03/30 12:58:50;;;;;;;5.25;2.50;;;;;;;;;;5033256;28;20061;-66
2021/03/30 13:01:20;;;;;;;5.72;2.05;;;;;;;;;;5055602;28;20386;-65
2021/03/30 13:03:51;;;;;;;5.50;2.75;;;;;;;;;;5038495;28;20021;-65
2021/03/30 13:06:18;;;;;;;6.50;2.78;;;;;;;;;;5047649;28;20025;-66
2021/03/30 13:08:48;;;;;;;7.18;2.60;;;;;;;;;;5057155;28;20461;-67
2021/03/30 13:11:15;;;;;;;6.68;2.80;;;;;;;;;;5059563;28;20096;-64
2021/03/30 13:13:41;;;;;;;11.15;3.17;;;;;;;;;;5064763;28;20421;-66
2021/03/30 13:16:07;;;;;;;4.57;2.90;;;;;;;;;;5034981;28;20060;-66
2021/03/30 13:18:32;;;;;;;6.25;3.00;;;;;;;;;;5034812;28;20021;-66
2021/03/30 13:20:57;;;;;;;8.68;3.22;;;;;;;;;;5038120;28;20056;-65
2021/03/30 13:23:23;;;;;;;7.18;3.00;;;;;;;;;;5035469;28;20017;-66
2021/03/30 13:25:48;;;;;;;7.75;3.78;;;;;;;;;;5035347;28;20020;-65
2021/03/30 13:28:14;;;;;;;6.22;3.20;;;;;;;;;;5052480;28;20025;-65
2021/03/30 13:30:40;;;;;;;5.97;3.17;;;;;;;;;;5053037;28;20021;-65
2021/03/30 13:33:10;;;;;;;4.68;2.58;;;;;;;;;;5052135;28;20120;-65
2021/03/30 13:35:40;;;;;;;6.75;2.80;;;;;;;;;;5034005;28;20087;-65
2021/03/30 13:38:11;;;;;;;5.78;2.50;;;;;;;;;;5047637;28;20021;-67
2021/03/30 13:40:40;;;;;;;7.07;2.75;;;;;;;;;;5053258;28;20036;-66
2021/03/30 13:43:05;;;;;;;7.75;2.63;;;;;;;;;;5053201;28;20492;-66
2021/03/30 13:45:32;;;;;;;6.97;2.70;;;;;;;;;;5034333;28;20013;-66
2021/03/30 13:47:57;;;;;;;4.63;2.25;;;;;;;;;;5031734;28;20036;-67
2021/03/30 13:50:24;;;;;;;5.82;2.47;;;;;;;;;;5034421;28;20021;-66
2021/03/30 13:52:50;;;;;;;4.25;2.58;;;;;;;;;;5045442;28;20033;-65
2021/03/30 13:55:15;;;;;;;8.18;2.50;;;;;;;;;;5052314;28;20021;-66
2021/03/30 13:57:43;;;;;;;6.72;2.70;;;;;;;;;;5035442;28;20029;-68
2021/03/30 14:00:09;;;;;;;8.05;2.97;;;;;;;;;;5035169;28;20470;-67
2021/03/30 14:02:34;;;;;;;6.75;2.70;;;;;;;;;;5017452;28;20037;-67
2021/03/30 14:05:00;;;;;;;4.78;2.53;;;;;;;;;;5033789;28;20029;-68
2021/03/30 14:07:25;;;;;;;4.80;2.20;;;;;;;;;;5017865;28;20602;-65
2021/03/30 14:09:50;;;;;;;3.22;2.15;;;;;;;;;;5035093;28;20116;-68
2021/03/30 14:12:24;;;;;;;6.82;2.75;;;;;;;;;;5032890;28;20026;-66
2021/03/30 14:14:55;;;;;;;3.72;1.83;;;;;;;;;;5033974;28;20036;-66
2021/03/30 14:19:58;;;;;;;4.32;2.20;;;;;;;;;;5047535;28;20048;-64
2021/03/30 14:22:29;;;;;;;5.32;2.58;;;;;;;;;;5044781;28;20035;-65
2021/03/30 14:25:00;;;;;;;6.10;2.60;;;;;;;;;;5066490;28;20033;-65
2021/03/30 14:27:27;;;;;;;5.50;2.53;;;;;;;;;;5052644;28;20081;-63
2021/03/30 14:29:52;;;;;;;10.57;2.70;;;;;;;;;;5034430;28;20045;-64